Time;durP1;ratioP1;P1;durP2;ratioP2;P2;SDS_P1;SDS_P2;PMS_P1;PMS_P2;Temp;Humidity;BMP_temperature;BMP_pressure;BME280_temperature;BME280_humidity;BME280_pressure;Samples;Min_cycle;Max_cycle;Signal;HPM_P1;HPM_P2
2021/10/03 00:00:19;;;;;;;1.40;1.30;;;;;;;17.30;85.34;99269.06;4958524;28;20077;-80
2021/10/03 00:02:47;;;;;;;1.42;1.33;;;;;;;17.21;85.05;99259.38;4975659;28;20472;-80
2021/10/03 00:05:12;;;;;;;2.88;1.40;;;;;;;17.13;85.24;99268.19;4958556;28;20118;-79
2021/10/03 00:07:40;;;;;;;2.05;1.40;;;;;;;17.17;85.55;99261.56;4975378;28;20166;-79
2021/10/03 00:10:05;;;;;;;1.70;1.60;;;;;;;17.24;85.38;99275.06;4975433;28;20069;-80
2021/10/03 00:12:31;;;;;;;2.30;1.60;;;;;;;17.25;85.16;99265.22;4975570;28;20031;-80
2021/10/03 00:14:56;;;;;;;2.67;1.40;;;;;;;17.16;85.29;99270.53;4975398;28;20023;-79
2021/10/03 00:17:21;;;;;;;1.88;1.55;;;;;;;17.20;85.38;99260.38;4975378;28;20037;-78
2021/10/03 00:19:47;;;;;;;2.95;1.60;;;;;;;17.23;85.35;99285.91;4975570;28;20034;-75
2021/10/03 00:22:12;;;;;;;2.28;1.55;;;;;;;17.23;85.68;99276.06;4975394;28;20030;-75
2021/10/03 00:24:38;;;;;;;2.20;1.95;;;;;;;17.06;86.20;99273.34;4975236;28;20038;-76
2021/10/03 00:27:03;;;;;;;2.30;1.90;;;;;;;17.10;86.18;99297.91;4957988;28;20031;-80
2021/10/03 00:29:29;;;;;;;2.47;2.08;;;;;;;17.06;86.14;99292.03;4957964;28;20027;-77
2021/10/03 00:31:55;;;;;;;4.22;2.20;;;;;;;17.11;85.91;99306.75;4957807;28;20023;-81
2021/10/03 00:34:20;;;;;;;2.35;2.15;;;;;;;17.21;85.78;99294.09;4975038;28;20022;-80
2021/10/03 00:36:48;;;;;;;2.42;2.10;;;;;;;17.34;85.25;99303.50;5000198;23;20089;-81
2021/10/03 00:39:14;;;;;;;2.63;2.00;;;;;;;17.28;85.01;99312.97;4982916;28;20107;-81
2021/10/03 00:41:43;;;;;;;2.58;2.10;;;;;;;17.27;85.16;99309.47;4998801;28;20062;-79
2021/10/03 00:44:09;;;;;;;3.08;2.00;;;;;;;17.34;84.94;99316.84;4988113;28;20059;-81
2021/10/03 00:46:34;;;;;;;4.18;2.30;;;;;;;17.09;85.26;99320.28;4982056;28;20062;-81
2021/10/03 00:49:00;;;;;;;2.40;2.10;;;;;;;17.24;85.15;99317.00;4965977;28;20022;-82
2021/10/03 00:51:25;;;;;;;5.68;1.90;;;;;;;17.26;84.69;99323.00;4951354;28;20058;-82
2021/10/03 00:53:51;;;;;;;2.97;1.70;;;;;;;16.96;84.63;99299.31;4966403;28;20442;-82
2021/10/03 00:56:17;;;;;;;3.78;1.92;;;;;;;17.18;84.21;99315.78;4981934;28;20442;-81
2021/10/03 00:58:42;;;;;;;1.98;1.80;;;;;;;17.17;84.13;99320.31;4960744;28;20046;-81
2021/10/03 01:01:10;;;;;;;6.53;2.17;;;;;;;17.09;84.41;99320.28;4976336;28;20040;-81
2021/10/03 01:03:35;;;;;;;2.35;2.00;;;;;;;17.05;84.48;99327.72;4975385;28;20099;-81
2021/10/03 01:06:03;;;;;;;3.28;2.00;;;;;;;17.21;84.50;99333.34;4977177;28;20415;-81
2021/10/03 01:08:28;;;;;;;4.80;1.70;;;;;;;16.92;84.36;99320.19;4975278;28;20042;-81
2021/10/03 01:10:54;;;;;;;5.00;2.00;;;;;;;17.10;83.93;99315.78;4976560;28;20023;-82
2021/10/03 01:13:19;;;;;;;4.07;2.10;;;;;;;17.01;83.53;99333.56;4975238;28;20092;-81
2021/10/03 01:15:46;;;;;;;5.53;2.00;;;;;;;17.09;83.48;99322.94;4959105;28;20034;-80
2021/10/03 01:18:12;;;;;;;6.30;1.92;;;;;;;17.26;82.87;99329.19;4974487;28;20058;-80
2021/10/03 01:20:37;;;;;;;5.03;2.10;;;;;;;17.11;83.32;99338.81;4975674;28;20030;-80
2021/10/03 01:23:04;;;;;;;6.35;1.80;;;;;;;17.04;83.53;99339.41;4991496;28;20019;-82
2021/10/03 01:25:33;;;;;;;4.18;1.80;;;;;;;16.91;83.74;99337.19;4984836;28;20045;-80
2021/10/03 01:27:59;;;;;;;5.88;1.95;;;;;;;16.91;83.88;99349.72;4999203;28;20031;-79
2021/10/03 01:30:24;;;;;;;4.85;1.67;;;;;;;16.86;83.78;99376.91;4998195;28;20046;-80
2021/10/03 01:32:50;;;;;;;5.63;1.50;;;;;;;16.59;84.94;99353.88;4994325;28;20043;-80
2021/10/03 01:35:16;;;;;;;7.97;2.10;;;;;;;16.52;85.61;99359.00;4977712;28;20171;-81
2021/10/03 01:37:42;;;;;;;6.03;1.95;;;;;;;16.49;86.17;99375.34;4959703;28;20054;-80
2021/10/03 01:40:08;;;;;;;8.63;2.17;;;;;;;16.34;86.66;99372.38;4976250;28;20039;-79
2021/10/03 01:42:34;;;;;;;10.15;1.60;;;;;;;16.23;87.42;99376.13;4979440;28;20418;-78
2021/10/03 01:44:59;;;;;;;8.90;2.15;;;;;;;16.30;87.70;99372.69;4993342;28;20039;-78
2021/10/03 01:47:25;;;;;;;5.93;1.77;;;;;;;16.19;87.81;99372.94;4975061;28;20030;-81
2021/10/03 01:49:50;;;;;;;4.95;1.65;;;;;;;16.11;88.18;99386.19;4975488;28;20078;-80
2021/10/03 01:52:16;;;;;;;4.97;1.92;;;;;;;16.03;88.75;99377.16;4975458;28;20034;-79
2021/10/03 01:54:41;;;;;;;6.05;1.75;;;;;;;15.99;89.09;99365.09;4975269;28;20035;-80
2021/10/03 01:57:07;;;;;;;10.25;2.13;;;;;;;16.03;89.17;99376.31;4975447;28;20027;-80
2021/10/03 01:59:32;;;;;;;7.18;2.05;;;;;;;16.05;89.03;99385.00;4974914;28;20504;-80
2021/10/03 02:01:58;;;;;;;6.57;2.00;;;;;;;15.82;88.78;99377.41;4974219;28;20529;-80
2021/10/03 02:04:28;;;;;;;7.30;1.90;;;;;;;15.78;89.04;99370.72;4974100;28;20448;-80
2021/10/03 02:06:55;;;;;;;9.38;1.63;;;;;;;15.82;89.51;99367.59;4975668;28;20048;-80
2021/10/03 02:09:24;;;;;;;10.98;1.90;;;;;;;15.75;89.61;99352.38;4975404;28;20037;-80
2021/10/03 02:11:54;;;;;;;10.57;1.90;;;;;;;15.73;89.54;99359.66;4990327;28;20026;-79
2021/10/03 02:14:26;;;;;;;6.28;1.80;;;;;;;15.61;89.30;99369.72;4977812;28;20086;-81
2021/10/03 02:16:54;;;;;;;11.80;1.83;;;;;;;15.33;89.31;99359.91;4962512;28;20474;-80
2021/10/03 02:19:23;;;;;;;11.25;1.55;;;;;;;15.45;88.84;99369.38;4979887;28;20054;-80
2021/10/03 02:21:51;;;;;;;8.63;1.95;;;;;;;15.45;88.52;99366.72;4979077;28;20099;-81
2021/10/03 02:24:18;;;;;;;10.32;1.70;;;;;;;15.49;88.38;99383.22;4963222;28;20043;-81
2021/10/03 02:26:45;;;;;;;9.27;1.90;;;;;;;15.31;88.94;99397.34;4980053;28;20381;-81
2021/10/03 02:29:12;;;;;;;11.48;2.03;;;;;;;15.52;88.86;99377.59;4964664;28;20042;-82
2021/10/03 02:31:37;;;;;;;7.88;2.22;;;;;;;15.46;88.19;99383.53;4980794;28;20118;-81
2021/10/03 02:34:04;;;;;;;8.55;1.50;;;;;;;15.36;87.49;99377.44;4982646;28;20496;-81
2021/10/03 02:36:30;;;;;;;8.48;1.70;;;;;;;15.08;88.27;99378.25;4989003;28;20154;-80
2021/10/03 02:38:57;;;;;;;6.53;1.60;;;;;;;14.88;89.17;99366.84;4997701;28;20069;-79
2021/10/03 02:41:24;;;;;;;9.23;2.05;;;;;;;14.89;89.98;99361.38;4998101;28;20027;-79
2021/10/03 02:43:54;;;;;;;9.40;1.80;;;;;;;15.02;89.86;99366.38;4978377;28;20046;-80
2021/10/03 02:46:20;;;;;;;11.85;2.00;;;;;;;15.12;89.71;99377.00;4981400;28;20074;-81
2021/10/03 02:48:52;;;;;;;12.68;2.22;;;;;;;15.02;89.81;99377.03;4980571;28;20092;-81
2021/10/03 02:51:22;;;;;;;14.18;2.47;;;;;;;14.91;90.26;99390.50;4963704;28;20045;-80
2021/10/03 02:53:48;;;;;;;13.68;2.13;;;;;;;14.90;90.60;99394.16;4964420;28;20019;-81
2021/10/03 02:56:17;;;;;;;10.65;2.40;;;;;;;14.77;91.22;99399.75;4980939;28;20081;-80
2021/10/03 02:58:43;;;;;;;10.77;2.13;;;;;;;14.74;91.90;99398.25;4998039;28;20087;-80
2021/10/03 03:01:09;;;;;;;11.45;1.70;;;;;;;14.60;91.15;99411.97;5001451;28;20019;-80
2021/10/03 03:03:36;;;;;;;7.80;1.60;;;;;;;14.33;88.67;99404.63;5001985;28;20015;-80
2021/10/03 03:06:05;;;;;;;4.30;0.90;;;;;;;14.11;87.72;99402.22;4997793;28;20038;-80
2021/10/03 03:08:31;;;;;;;6.43;1.10;;;;;;;14.03;87.71;99403.78;4981422;28;20119;-80
2021/10/03 03:10:56;;;;;;;8.85;1.20;;;;;;;13.93;88.58;99409.06;4981015;28;20035;-81
2021/10/03 03:13:22;;;;;;;5.60;1.10;;;;;;;13.99;88.12;99406.84;4978755;28;20023;-80
2021/10/03 03:15:47;;;;;;;6.90;1.00;;;;;;;13.88;88.44;99415.78;4979284;28;20033;-80
2021/10/03 03:18:13;;;;;;;7.57;1.05;;;;;;;13.91;88.56;99410.19;4980330;28;20030;-81
2021/10/03 03:20:38;;;;;;;6.97;1.13;;;;;;;13.86;88.85;99415.09;4982600;28;20027;-79
2021/10/03 03:23:04;;;;;;;6.18;1.45;;;;;;;13.80;89.30;99403.19;4982776;28;20054;-80
2021/10/03 03:25:30;;;;;;;8.63;1.30;;;;;;;13.94;89.43;99413.44;4981920;28;20038;-78
2021/10/03 03:27:56;;;;;;;8.73;1.88;;;;;;;14.02;89.79;99412.72;4963302;28;20110;-82
2021/10/03 03:30:21;;;;;;;7.70;1.45;;;;;;;14.08;89.77;99411.31;4979677;28;20049;-80
2021/10/03 03:32:47;;;;;;;7.65;1.50;;;;;;;14.08;89.84;99412.19;4979349;28;20027;-80
2021/10/03 03:35:12;;;;;;;8.98;1.60;;;;;;;14.16;90.32;99414.13;4963027;28;20577;-80
2021/10/03 03:37:39;;;;;;;8.38;1.40;;;;;;;14.19;89.90;99413.00;4980670;28;20046;-80
2021/10/03 03:40:07;;;;;;;10.48;2.00;;;;;;;14.16;90.77;99414.13;4978448;28;20050;-81
2021/10/03 03:42:33;;;;;;;7.45;1.45;;;;;;;14.24;90.54;99421.41;4976765;28;20553;-82
2021/10/03 03:44:58;;;;;;;9.05;1.77;;;;;;;14.32;90.62;99424.19;4976703;28;20039;-80
2021/10/03 03:47:24;;;;;;;8.00;1.90;;;;;;;14.25;90.49;99430.22;4977733;28;20027;-81
2021/10/03 03:49:51;;;;;;;14.02;2.20;;;;;;;14.31;90.10;99433.16;4976530;28;20038;-80
2021/10/03 03:52:18;;;;;;;9.00;1.40;;;;;;;14.23;89.47;99440.97;4977873;28;20026;-85
2021/10/03 03:54:43;;;;;;;7.18;1.25;;;;;;;14.13;89.00;99430.38;4960282;28;20061;-81
2021/10/03 03:57:10;;;;;;;7.65;1.27;;;;;;;14.13;88.43;99434.84;4959931;28;20389;-82
2021/10/03 03:59:35;;;;;;;9.48;1.38;;;;;;;14.13;87.73;99434.84;4977363;28;20035;-80
2021/10/03 04:02:00;;;;;;;6.60;1.45;;;;;;;14.13;87.13;99426.84;4977358;28;20385;-82
2021/10/03 04:04:26;;;;;;;9.43;1.38;;;;;;;13.95;86.53;99425.72;4976235;28;20078;-81
2021/10/03 04:06:51;;;;;;;8.10;1.30;;;;;;;14.03;86.41;99426.84;4977552;28;20533;-81
2021/10/03 04:09:17;;;;;;;10.52;1.42;;;;;;;14.01;85.95;99420.84;4977493;28;20046;-82
2021/10/03 04:11:42;;;;;;;9.15;1.60;;;;;;;14.00;85.75;99419.16;4977378;28;20034;-84
2021/10/03 04:14:08;;;;;;;7.75;1.17;;;;;;;14.05;85.40;99414.25;4960242;28;20023;-81
2021/10/03 04:16:33;;;;;;;5.72;1.00;;;;;;;14.03;84.98;99408.25;4977221;28;20031;-80
2021/10/03 04:18:58;;;;;;;8.95;1.27;;;;;;;13.97;84.64;99407.00;4959865;28;20390;-82
2021/10/03 04:21:24;;;;;;;7.05;0.90;;;;;;;13.98;84.19;99398.03;4959332;28;20115;-81
2021/10/03 04:23:49;;;;;;;5.22;1.13;;;;;;;13.95;84.18;99406.28;4976867;28;20358;-80
2021/10/03 04:26:15;;;;;;;9.38;1.20;;;;;;;13.92;84.52;99415.38;4976044;28;20359;-80
2021/10/03 04:28:40;;;;;;;4.00;1.08;;;;;;;13.87;84.19;99422.91;4962574;28;20034;-80
2021/10/03 04:31:06;;;;;;;7.25;1.27;;;;;;;13.90;84.07;99433.25;4999571;28;20034;-79
2021/10/03 04:33:31;;;;;;;6.10;0.95;;;;;;;13.81;84.40;99442.06;4999335;28;20087;-79
2021/10/03 04:36:00;;;;;;;9.38;1.10;;;;;;;13.69;84.48;99454.63;5018406;23;20208;-78
2021/10/03 04:38:26;;;;;;;4.60;1.10;;;;;;;13.76;84.55;99455.75;4958716;28;20078;-78
2021/10/03 04:40:51;;;;;;;8.10;1.23;;;;;;;13.78;84.53;99461.78;4975400;28;20234;-78
2021/10/03 04:43:17;;;;;;;11.57;1.30;;;;;;;13.65;84.51;99455.88;4958147;28;20031;-79
2021/10/03 04:45:42;;;;;;;7.75;0.88;;;;;;;13.67;84.16;99462.72;4975282;28;20465;-78
2021/10/03 04:48:08;;;;;;;8.35;1.15;;;;;;;13.60;84.10;99461.59;4975100;28;20100;-78
2021/10/03 04:50:33;;;;;;;4.03;1.10;;;;;;;13.57;84.22;99473.31;4974811;28;20034;-77
2021/10/03 04:52:58;;;;;;;5.97;1.10;;;;;;;13.69;84.12;99473.22;4974909;28;20035;-77
2021/10/03 04:55:25;;;;;;;3.72;1.05;;;;;;;13.67;83.29;99468.03;4974778;28;20030;-77
2021/10/03 04:57:51;;;;;;;6.93;1.30;;;;;;;13.84;83.10;99465.69;4974797;28;20487;-77
2021/10/03 05:00:16;;;;;;;4.68;1.08;;;;;;;13.63;83.96;99468.44;4974886;28;20027;-77
2021/10/03 05:02:42;;;;;;;5.90;1.08;;;;;;;13.57;84.50;99461.88;4974694;28;20379;-77
2021/10/03 05:05:07;;;;;;;7.28;1.45;;;;;;;13.59;84.71;99465.22;4974980;28;20462;-78
2021/10/03 05:07:33;;;;;;;9.55;1.30;;;;;;;13.54;84.35;99459.50;4973779;28;20437;-78
2021/10/03 05:09:59;;;;;;;6.20;1.10;;;;;;;13.41;84.96;99468.50;4974697;28;20027;-77
2021/10/03 05:12:25;;;;;;;8.73;1.17;;;;;;;13.31;85.43;99471.09;4974811;28;20070;-79
2021/10/03 05:14:50;;;;;;;4.82;1.33;;;;;;;13.48;85.83;99476.75;4974636;28;20034;-77
2021/10/03 05:17:16;;;;;;;1.77;0.70;;;;;;;13.55;84.63;99480.59;4974651;28;20031;-77
2021/10/03 05:19:41;;;;;;;11.45;1.23;;;;;;;13.48;84.34;99491.88;4957384;28;20042;-78
2021/10/03 05:22:06;;;;;;;6.55;1.25;;;;;;;13.38;85.52;99500.63;4957154;28;20027;-78
2021/10/03 05:24:32;;;;;;;6.90;1.30;;;;;;;13.38;85.31;99507.75;4974401;28;20030;-77
2021/10/03 05:26:58;;;;;;;9.10;1.17;;;;;;;13.57;84.36;99512.34;4974432;28;20077;-78
2021/10/03 05:29:23;;;;;;;4.57;1.23;;;;;;;13.41;85.32;99503.00;4957422;28;20033;-77
2021/10/03 05:31:49;;;;;;;5.82;0.90;;;;;;;13.26;85.92;99509.63;4974490;28;20030;-78
2021/10/03 05:34:14;;;;;;;7.95;1.17;;;;;;;13.23;86.27;99500.13;4941200;28;20042;-78
2021/10/03 05:36:39;;;;;;;5.85;0.90;;;;;;;13.32;86.80;99504.63;4973841;28;20398;-79
2021/10/03 05:39:05;;;;;;;6.93;1.10;;;;;;;13.43;86.65;99506.34;4974100;28;20496;-80
2021/10/03 05:41:30;;;;;;;10.93;1.48;;;;;;;13.48;86.33;99507.78;4957003;28;20073;-80
2021/10/03 05:43:56;;;;;;;5.63;1.00;;;;;;;13.53;86.24;99508.25;4974294;28;20027;-80
2021/10/03 05:46:22;;;;;;;4.47;1.00;;;;;;;13.50;86.33;99519.09;4956568;28;20428;-80
2021/10/03 05:48:47;;;;;;;6.47;1.65;;;;;;;13.46;86.23;99518.56;4973157;28;20039;-80
2021/10/03 05:51:13;;;;;;;7.45;1.65;;;;;;;13.46;86.48;99516.72;4970570;28;20038;-81
2021/10/03 05:53:39;;;;;;;4.00;2.10;;;;;;;13.36;86.52;99518.50;4973391;28;20033;-80
2021/10/03 05:56:04;;;;;;;9.27;2.30;;;;;;;13.21;87.27;99517.97;4973927;28;20047;-81
2021/10/03 05:58:30;;;;;;;7.13;2.28;;;;;;;13.26;87.14;99510.47;4974003;28;20477;-79
2021/10/03 06:00:55;;;;;;;5.47;2.15;;;;;;;13.37;87.21;99516.69;4956648;28;20039;-79
2021/10/03 06:03:21;;;;;;;5.93;2.13;;;;;;;13.37;87.43;99516.69;4973934;28;20023;-78
2021/10/03 06:05:46;;;;;;;6.45;2.30;;;;;;;13.26;87.61;99521.09;4956583;28;20038;-79
2021/10/03 06:08:15;;;;;;;9.18;1.88;;;;;;;13.36;87.40;99525.59;4973658;28;20037;-78
2021/10/03 06:10:40;;;;;;;7.38;1.95;;;;;;;13.29;87.80;99525.28;4973711;28;20034;-80
2021/10/03 06:13:06;;;;;;;6.07;1.52;;;;;;;13.31;87.70;99537.47;4973704;28;20027;-77
2021/10/03 06:15:32;;;;;;;6.53;1.48;;;;;;;13.31;87.55;99536.63;4973890;28;20143;-78
2021/10/03 06:17:57;;;;;;;4.55;1.60;;;;;;;13.32;87.44;99543.59;4973838;28;20031;-78
2021/10/03 06:20:23;;;;;;;7.10;1.70;;;;;;;13.39;87.51;99551.91;4973692;28;20532;-78
2021/10/03 06:22:48;;;;;;;7.03;1.65;;;;;;;13.37;87.15;99553.88;4973031;28;20030;-78
2021/10/03 06:25:14;;;;;;;5.97;1.45;;;;;;;13.31;87.70;99556.06;4973811;28;20488;-76
2021/10/03 06:27:39;;;;;;;4.07;1.70;;;;;;;13.32;88.07;99559.53;4973786;28;20026;-80
2021/10/03 06:30:05;;;;;;;4.15;1.15;;;;;;;13.25;87.92;99567.19;4973816;28;20030;-78
2021/10/03 06:32:31;;;;;;;5.72;1.50;;;;;;;13.21;88.32;99571.91;4973762;28;20500;-78
2021/10/03 06:34:56;;;;;;;5.53;1.58;;;;;;;13.11;88.65;99563.06;4973734;28;20062;-78
2021/10/03 06:37:22;;;;;;;3.25;1.00;;;;;;;13.20;88.65;99577.34;4973443;28;20043;-77
2021/10/03 06:39:47;;;;;;;9.25;1.60;;;;;;;13.05;88.64;99580.31;4973695;28;20039;-78
2021/10/03 06:42:12;;;;;;;3.40;1.48;;;;;;;13.09;89.07;99578.25;4973642;28;20355;-77
2021/10/03 06:44:38;;;;;;;5.80;1.40;;;;;;;13.14;88.97;99586.69;4973682;28;20027;-78
2021/10/03 06:47:08;;;;;;;5.43;1.50;;;;;;;13.25;89.05;99601.72;4956222;28;20031;-78
2021/10/03 06:49:34;;;;;;;6.97;1.40;;;;;;;13.24;88.90;99594.69;4973698;28;20074;-78
2021/10/03 06:52:00;;;;;;;9.85;2.22;;;;;;;13.24;89.17;99597.34;4973522;28;20038;-78
2021/10/03 06:54:25;;;;;;;6.30;2.10;;;;;;;13.33;89.05;99612.53;4973691;28;20031;-78
2021/10/03 06:56:50;;;;;;;7.35;2.58;;;;;;;13.45;89.05;99615.09;4973320;28;20049;-78
2021/10/03 06:59:16;;;;;;;7.85;2.88;;;;;;;13.38;88.89;99616.59;4973465;28;20081;-78
2021/10/03 07:01:42;;;;;;;5.63;2.58;;;;;;;13.30;89.11;99614.59;4976342;28;20035;-78
2021/10/03 07:04:07;;;;;;;6.20;2.67;;;;;;;13.38;89.60;99619.25;4976685;28;20037;-77
2021/10/03 07:06:33;;;;;;;6.07;2.60;;;;;;;13.51;89.21;99627.88;4976691;28;20030;-79
2021/10/03 07:08:58;;;;;;;7.03;2.65;;;;;;;13.62;88.94;99615.53;4976833;28;20038;-77
2021/10/03 07:11:24;;;;;;;8.65;2.70;;;;;;;13.69;88.48;99614.88;4962438;28;20038;-76
2021/10/03 07:13:49;;;;;;;6.70;2.50;;;;;;;13.68;88.30;99623.78;4960441;28;20038;-77
2021/10/03 07:16:16;;;;;;;8.25;2.45;;;;;;;13.64;88.39;99625.03;4978273;28;20035;-78
2021/10/03 07:18:41;;;;;;;6.32;2.42;;;;;;;13.57;88.28;99630.03;4978492;28;20076;-77
2021/10/03 07:21:06;;;;;;;8.57;2.40;;;;;;;13.73;88.49;99625.22;4976888;28;20039;-76
2021/10/03 07:23:32;;;;;;;8.35;2.42;;;;;;;13.81;88.33;99625.38;4976513;28;20073;-76
2021/10/03 07:25:58;;;;;;;5.93;2.22;;;;;;;13.81;87.92;99628.03;4976329;28;20027;-77
2021/10/03 07:28:24;;;;;;;6.55;2.40;;;;;;;13.83;88.25;99623.44;4976560;28;20046;-79
2021/10/03 07:30:50;;;;;;;8.05;2.20;;;;;;;13.89;88.18;99625.56;4976419;28;20019;-80
2021/10/03 07:33:18;;;;;;;5.90;2.60;;;;;;;14.00;87.62;99631.75;4976592;28;20035;-80
2021/10/03 07:35:43;;;;;;;6.85;2.60;;;;;;;13.93;88.07;99626.97;4976445;28;20042;-80
2021/10/03 07:38:09;;;;;;;6.35;2.80;;;;;;;14.12;87.88;99629.88;4973441;28;20058;-80
2021/10/03 07:40:34;;;;;;;5.90;2.53;;;;;;;14.18;87.42;99640.78;4976492;28;20034;-78
2021/10/03 07:42:59;;;;;;;9.07;2.90;;;;;;;14.23;87.15;99632.41;4976191;28;20041;-80
2021/10/03 07:45:25;;;;;;;9.35;2.60;;;;;;;14.14;86.88;99628.75;4976214;28;20027;-81
2021/10/03 07:47:50;;;;;;;6.00;2.58;;;;;;;14.13;87.09;99629.75;4976243;28;20517;-80
2021/10/03 07:50:16;;;;;;;7.40;2.75;;;;;;;14.09;86.64;99633.63;4976172;28;20026;-81
2021/10/03 07:52:41;;;;;;;8.93;2.70;;;;;;;13.85;88.06;99633.94;4976077;28;20382;-79
2021/10/03 07:55:07;;;;;;;4.88;2.88;;;;;;;13.73;88.42;99636.69;4975877;28;20023;-79
2021/10/03 07:57:32;;;;;;;7.22;2.70;;;;;;;13.78;89.15;99633.63;4958777;28;20035;-81
2021/10/03 07:59:58;;;;;;;5.03;2.45;;;;;;;13.86;88.80;99627.66;4958553;28;20023;-79
2021/10/03 08:02:23;;;;;;;9.60;3.15;;;;;;;13.91;89.10;99628.09;4976220;28;20023;-80
2021/10/03 08:04:49;;;;;;;7.03;2.97;;;;;;;13.90;89.14;99626.44;4976207;28;20049;-77
2021/10/03 08:07:14;;;;;;;6.25;3.33;;;;;;;13.92;89.31;99627.13;4975671;28;20031;-76
2021/10/03 08:09:39;;;;;;;8.85;2.92;;;;;;;13.88;88.78;99628.38;4975593;28;20397;-78
2021/10/03 08:12:05;;;;;;;7.85;3.20;;;;;;;13.82;88.70;99627.91;4975404;28;20377;-79
2021/10/03 08:14:31;;;;;;;10.75;4.50;;;;;;;13.95;88.61;99632.16;4975848;28;20077;-77
2021/10/03 08:16:56;;;;;;;9.55;5.30;;;;;;;14.01;88.15;99638.78;4975579;28;20495;-79
2021/10/03 08:19:21;;;;;;;9.35;5.60;;;;;;;13.97;88.12;99643.50;4958508;28;20030;-78
2021/10/03 08:21:47;;;;;;;11.70;6.00;;;;;;;13.84;88.56;99654.34;4942445;28;20418;-78
2021/10/03 08:24:12;;;;;;;10.00;6.40;;;;;;;13.87;88.34;99656.75;4975740;28;20098;-77
2021/10/03 08:26:38;;;;;;;12.00;6.68;;;;;;;13.93;88.71;99669.50;4975440;28;20023;-77
2021/10/03 08:29:03;;;;;;;12.95;6.60;;;;;;;13.93;88.34;99676.66;4975090;28;20026;-77
2021/10/03 08:31:29;;;;;;;10.35;5.82;;;;;;;13.82;88.62;99672.25;4975210;28;20033;-77
2021/10/03 08:33:54;;;;;;;7.75;5.63;;;;;;;14.00;88.40;99675.16;4975120;28;20089;-77
2021/10/03 08:36:20;;;;;;;10.30;5.57;;;;;;;13.95;88.46;99672.03;4990693;23;20516;-81
2021/10/03 08:38:45;;;;;;;14.15;7.25;;;;;;;14.04;88.43;99673.88;4960859;28;20392;-80
2021/10/03 08:41:11;;;;;;;9.82;7.13;;;;;;;14.00;88.28;99675.16;4977279;28;20038;-81
2021/10/03 08:43:37;;;;;;;10.18;6.22;;;;;;;13.78;87.79;99686.75;4994374;28;20022;-82
2021/10/03 08:46:02;;;;;;;9.60;6.43;;;;;;;13.92;87.94;99678.47;4994142;28;20041;-79
2021/10/03 08:48:28;;;;;;;10.23;5.13;;;;;;;13.98;87.60;99677.06;4976749;28;20023;-81
2021/10/03 08:50:53;;;;;;;5.03;3.20;;;;;;;14.03;87.31;99664.25;4976858;28;20511;-82
2021/10/03 08:53:19;;;;;;;4.75;3.63;;;;;;;14.19;86.86;99678.88;4994338;28;20030;-81
2021/10/03 08:55:45;;;;;;;3.58;2.22;;;;;;;14.11;87.12;99676.03;4994125;28;20077;-80
2021/10/03 08:58:10;;;;;;;5.25;2.08;;;;;;;14.17;86.61;99681.66;4994268;28;20418;-80
2021/10/03 09:00:49;;;;;;;5.88;1.90;;;;;;;14.13;86.57;99668.75;4960435;28;20060;-81
2021/10/03 09:03:15;;;;;;;4.50;1.70;;;;;;;14.17;86.78;99676.34;4994156;28;20053;-80
2021/10/03 09:05:46;;;;;;;5.88;1.63;;;;;;;14.44;86.63;99682.03;4993558;28;20130;-80
2021/10/03 09:08:16;;;;;;;4.68;2.00;;;;;;;14.53;86.50;99675.91;4993812;28;20385;-78
2021/10/03 09:10:48;;;;;;;4.72;1.80;;;;;;;14.28;85.27;99680.72;4994049;28;20065;-81
2021/10/03 09:13:14;;;;;;;3.92;1.30;;;;;;;14.55;84.71;99692.56;4976334;28;20026;-80
2021/10/03 09:15:39;;;;;;;5.13;1.30;;;;;;;14.62;83.31;99705.31;4976042;28;20118;-77
2021/10/03 09:18:06;;;;;;;1.75;1.27;;;;;;;14.66;82.77;99714.72;4993860;28;20045;-81
2021/10/03 09:20:32;;;;;;;6.05;1.50;;;;;;;14.64;82.51;99706.88;4992501;28;20613;-81
2021/10/03 09:23:14;;;;;;;5.97;1.50;;;;;;;14.36;82.29;99708.44;4993030;28;20031;-77
2021/10/03 09:25:47;;;;;;;3.72;1.30;;;;;;;14.32;81.18;99699.91;4975930;28;20389;-80
2021/10/03 09:28:25;;;;;;;5.70;1.25;;;;;;;14.49;80.97;99694.91;4993678;28;20105;-77
2021/10/03 09:31:04;;;;;;;2.83;1.10;;;;;;;14.58;80.56;99680.81;4993639;28;20153;-77
2021/10/03 09:33:53;;;;;;;2.00;1.08;;;;;;;14.82;80.79;99700.94;4994344;28;20026;-78
2021/10/03 09:36:28;;;;;;;4.15;0.95;;;;;;;14.89;77.27;99709.22;4976242;28;20051;-77
2021/10/03 09:39:09;;;;;;;1.80;0.90;;;;;;;14.70;76.29;99711.63;4993417;28;20033;-78
2021/10/03 09:41:38;;;;;;;2.97;1.00;;;;;;;14.59;76.91;99711.75;4993518;28;20053;-77
2021/10/03 09:44:11;;;;;;;1.95;0.75;;;;;;;14.45;77.79;99700.50;4975948;28;20434;-78
2021/10/03 09:46:47;;;;;;;2.67;1.08;;;;;;;14.41;78.26;99699.09;4993392;28;20026;-78
2021/10/03 09:49:25;;;;;;;2.00;1.05;;;;;;;14.61;78.06;99687.66;4993231;28;20027;-77
2021/10/03 09:51:50;;;;;;;2.22;0.90;;;;;;;14.63;78.07;99699.03;4993220;28;20038;-77
2021/10/03 09:54:18;;;;;;;4.13;0.82;;;;;;;14.50;78.58;99692.13;4993104;28;20027;-78
2021/10/03 09:56:44;;;;;;;2.75;0.88;;;;;;;14.29;79.44;99695.69;4993062;28;20026;-81
2021/10/03 09:59:10;;;;;;;3.10;0.65;;;;;;;14.40;79.32;99707.22;4993320;28;20069;-80
2021/10/03 10:01:55;;;;;;;1.30;0.70;;;;;;;14.33;79.25;99704.25;4993735;28;20133;-78
2021/10/03 10:04:20;;;;;;;2.35;0.90;;;;;;;14.14;78.71;99707.66;4993119;28;20092;-81
2021/10/03 10:06:46;;;;;;;0.50;0.50;;;;;;;14.09;75.62;99710.72;4993340;28;20035;-78
2021/10/03 10:09:14;;;;;;;2.00;0.80;;;;;;;13.94;74.82;99712.88;4992827;28;20069;-78
2021/10/03 10:11:44;;;;;;;0.82;0.50;;;;;;;13.98;72.89;99716.94;4976306;28;20030;-79
2021/10/03 10:14:09;;;;;;;1.10;0.70;;;;;;;13.87;73.07;99714.38;4959490;28;20112;-78
2021/10/03 10:16:47;;;;;;;2.60;0.82;;;;;;;13.98;74.73;99722.25;4975958;28;20054;-78
2021/10/03 10:19:26;;;;;;;1.85;0.63;;;;;;;14.18;74.76;99725.03;4993362;28;20022;-77
2021/10/03 10:22:16;;;;;;;2.08;0.77;;;;;;;14.20;73.59;99723.06;4993377;28;20027;-79
2021/10/03 10:24:47;;;;;;;1.40;0.60;;;;;;;14.13;73.86;99721.94;4993307;28;20085;-78
2021/10/03 10:27:21;;;;;;;1.38;0.65;;;;;;;14.08;73.58;99732.97;4992985;28;20054;-77
2021/10/03 10:29:54;;;;;;;3.13;0.80;;;;;;;13.89;74.96;99723.91;4993542;28;20030;-78
2021/10/03 10:32:24;;;;;;;0.55;0.45;;;;;;;14.04;76.09;99736.88;4993137;28;20038;-78
2021/10/03 10:35:07;;;;;;;1.90;0.95;;;;;;;13.98;75.44;99746.19;4994554;28;20097;-77
2021/10/03 10:37:59;;;;;;;1.70;0.60;;;;;;;13.94;75.19;99739.47;4997492;28;20062;-77
2021/10/03 10:40:28;;;;;;;1.80;1.00;;;;;;;13.98;74.96;99730.22;5002638;28;20042;-78
2021/10/03 10:43:18;;;;;;;2.42;0.70;;;;;;;14.17;75.63;99739.28;5000593;28;20468;-78
2021/10/03 10:45:51;;;;;;;1.52;0.70;;;;;;;14.16;74.88;99745.59;4997262;28;20089;-78
2021/10/03 10:48:17;;;;;;;3.50;0.90;;;;;;;14.18;75.87;99746.31;4992454;28;20033;-75
2021/10/03 10:50:44;;;;;;;2.83;0.98;;;;;;;14.32;75.34;99759.25;5010244;28;20104;-77
2021/10/03 10:53:23;;;;;;;1.38;0.82;;;;;;;14.15;75.38;99757.22;5005305;28;20030;-80
2021/10/03 10:56:04;;;;;;;0.88;0.50;;;;;;;14.24;72.79;99759.06;5006001;28;20033;-77
2021/10/03 10:58:38;;;;;;;1.45;0.70;;;;;;;13.96;71.80;99769.41;5004142;28;20038;-77
2021/10/03 11:01:12;;;;;;;1.48;0.77;;;;;;;14.15;73.84;99766.00;5004441;28;20096;-78
2021/10/03 11:04:03;;;;;;;0.95;0.60;;;;;;;13.89;74.29;99758.44;5006108;28;20112;-78
2021/10/03 11:06:35;;;;;;;1.00;0.60;;;;;;;14.11;73.46;99775.22;4988416;28;20033;-78
2021/10/03 11:09:10;;;;;;;1.58;0.90;;;;;;;13.99;75.23;99787.75;5007635;28;20030;-77
2021/10/03 11:11:38;;;;;;;1.80;0.65;;;;;;;14.11;75.35;99796.50;5006026;28;20062;-81
2021/10/03 11:14:07;;;;;;;3.72;1.80;;;;;;;13.97;75.55;99810.94;5004306;28;20037;-77
2021/10/03 11:16:35;;;;;;;2.50;1.00;;;;;;;13.74;76.01;99804.91;5005825;28;20120;-77
2021/10/03 11:19:05;;;;;;;3.05;1.02;;;;;;;13.79;76.28;99806.19;5004241;28;20022;-77
2021/10/03 11:21:36;;;;;;;2.15;1.00;;;;;;;13.82;75.51;99818.41;4998826;28;20054;-78
2021/10/03 11:24:06;;;;;;;1.52;0.90;;;;;;;13.54;75.45;99826.81;5000593;28;20030;-77
2021/10/03 11:26:56;;;;;;;1.60;0.90;;;;;;;13.32;76.32;99838.31;4997607;28;20482;-79
2021/10/03 11:29:25;;;;;;;5.22;2.78;;;;;;;13.53;76.99;99840.22;4995815;28;20033;-77
2021/10/03 11:31:55;;;;;;;7.57;4.65;;;;;;;13.44;77.95;99855.94;4995955;28;20042;-76